createdAt,value
2019-02-27T00:00:16.061Z,7.57
2019-02-27T00:02:44.711Z,6.40
2019-02-27T00:05:13.574Z,7.00
2019-02-27T00:07:42.194Z,7.37
2019-02-27T00:10:11.241Z,7.47
2019-02-27T00:12:40.026Z,7.70
2019-02-27T00:15:09.949Z,7.57
2019-02-27T00:17:38.654Z,7.07
2019-02-27T00:20:08.477Z,7.47
2019-02-27T00:22:37.608Z,7.40
2019-02-27T00:25:07.081Z,7.77
2019-02-27T00:27:35.737Z,7.40
2019-02-27T00:30:08.132Z,6.93
2019-02-27T00:32:36.822Z,7.57
2019-02-27T00:35:07.189Z,7.50
2019-02-27T00:37:36.535Z,7.57
2019-02-27T00:40:06.572Z,7.00
2019-02-27T00:42:35.316Z,8.30
2019-02-27T00:45:07.157Z,7.70
2019-02-27T00:47:35.898Z,6.13
2019-02-27T00:50:07.439Z,6.20
2019-02-27T00:52:36.179Z,7.23
2019-02-27T00:55:06.818Z,7.90
2019-02-27T00:57:35.620Z,6.93
2019-02-27T01:00:09.443Z,7.17
2019-02-27T01:02:38.249Z,7.23
2019-02-27T01:05:09.113Z,6.47
2019-02-27T01:07:38.116Z,7.80
2019-02-27T01:10:12.040Z,7.13
2019-02-27T01:12:40.311Z,7.90
2019-02-27T01:15:13.989Z,6.87
2019-02-27T01:17:43.336Z,7.50
2019-02-27T01:20:15.853Z,7.80
2019-02-27T01:22:44.550Z,6.70
2019-02-27T01:25:13.650Z,7.00
2019-02-27T01:27:42.380Z,7.60
2019-02-27T01:30:16.798Z,6.37
2019-02-27T01:32:45.847Z,5.70
2019-02-27T01:35:17.558Z,6.23
2019-02-27T01:37:45.346Z,6.00
2019-02-27T01:40:17.865Z,6.00
2019-02-27T01:42:45.896Z,5.37
2019-02-27T01:45:20.547Z,5.53
2019-02-27T01:47:46.953Z,5.63
2019-02-27T01:50:27.925Z,6.03
2019-02-27T01:52:56.964Z,5.90
2019-02-27T01:55:25.721Z,6.00
2019-02-27T01:57:54.496Z,7.60
2019-02-27T02:00:23.893Z,6.50
2019-02-27T02:02:54.588Z,6.63
2019-02-27T02:05:27.220Z,6.30
2019-02-27T02:07:56.806Z,6.00
2019-02-27T02:10:28.246Z,6.40
2019-02-27T02:13:03.621Z,6.67
2019-02-27T02:15:39.171Z,7.60
2019-02-27T02:18:23.853Z,7.90
2019-02-27T02:21:29.220Z,10.30
2019-02-27T02:24:30.719Z,11.27
2019-02-27T02:27:03.215Z,11.70
2019-02-27T02:29:44.446Z,15.03
2019-02-27T02:32:34.751Z,11.10
2019-02-27T02:35:19.956Z,8.10
2019-02-27T02:37:52.263Z,8.97
2019-02-27T02:40:39.547Z,8.27
2019-02-27T02:43:20.540Z,8.80
2019-02-27T02:45:52.938Z,11.27
2019-02-27T02:48:40.335Z,18.53
2019-02-27T02:51:12.833Z,22.63
2019-02-27T02:54:04.501Z,16.93
2019-02-27T02:56:42.973Z,10.40
2019-02-27T02:59:39.315Z,8.13
2019-02-27T03:02:29.881Z,8.50
2019-02-27T03:05:24.415Z,8.30
2019-02-27T03:08:20.972Z,7.27
2019-02-27T03:10:53.689Z,6.83
2019-02-27T03:13:33.860Z,7.13
2019-02-27T03:16:06.221Z,6.97
2019-02-27T03:18:55.265Z,8.20
2019-02-27T03:22:03.099Z,7.30
2019-02-27T03:24:48.009Z,7.47
2019-02-27T03:27:30.555Z,6.83
2019-02-27T03:30:18.629Z,7.43
2019-02-27T03:33:23.063Z,7.27
2019-02-27T03:35:49.979Z,7.40
2019-02-27T03:38:39.367Z,7.47
2019-02-27T03:41:22.429Z,7.67
2019-02-27T03:44:00.528Z,8.27
2019-02-27T03:46:40.806Z,8.17
2019-02-27T03:49:12.289Z,7.60
2019-02-27T03:51:59.939Z,8.03
2019-02-27T03:54:32.948Z,7.03
2019-02-27T03:57:08.352Z,7.03
2019-02-27T04:00:01.566Z,7.17
2019-02-27T04:02:42.042Z,6.90
2019-02-27T04:05:46.030Z,7.63
2019-02-27T04:08:43.624Z,7.87
2019-02-27T04:11:09.933Z,7.97
2019-02-27T04:13:39.377Z,8.50
2019-02-27T04:16:08.975Z,9.10
2019-02-27T04:18:37.432Z,8.43
2019-02-27T04:21:06.830Z,8.63
2019-02-27T04:23:36.193Z,8.30
2019-02-27T04:26:06.664Z,8.57
2019-02-27T04:28:36.386Z,8.67
2019-02-27T04:31:05.598Z,10.20
2019-02-27T04:33:35.364Z,10.90
2019-02-27T04:36:04.591Z,9.77
2019-02-27T04:38:34.115Z,13.00
2019-02-27T04:41:05.563Z,17.17
2019-02-27T04:43:34.740Z,14.27
2019-02-27T04:46:06.596Z,12.33
2019-02-27T04:48:35.828Z,11.87
2019-02-27T04:51:06.805Z,11.40
2019-02-27T04:53:36.074Z,10.33
2019-02-27T04:56:05.507Z,10.07
2019-02-27T04:58:34.989Z,10.27
2019-02-27T05:01:04.195Z,10.00
2019-02-27T05:03:35.741Z,11.07
2019-02-27T05:06:04.902Z,9.63
2019-02-27T05:08:35.113Z,9.70
2019-02-27T05:11:04.921Z,10.57
2019-02-27T05:13:34.944Z,10.93
2019-02-27T05:16:04.550Z,10.80
2019-02-27T05:18:33.953Z,10.27
2019-02-27T05:21:03.409Z,10.47
2019-02-27T05:23:33.573Z,10.47
2019-02-27T05:26:03.640Z,10.17
2019-02-27T05:28:34.962Z,9.70
2019-02-27T05:31:04.277Z,10.23
2019-02-27T05:33:36.454Z,10.07
2019-02-27T05:36:04.526Z,9.97
2019-02-27T05:38:33.799Z,9.37
2019-02-27T05:41:04.750Z,10.17
2019-02-27T05:43:34.010Z,9.60
2019-02-27T05:46:03.843Z,10.83
2019-02-27T05:48:33.883Z,10.60
2019-02-27T05:51:04.959Z,10.87
2019-02-27T05:53:34.423Z,11.20
2019-02-27T05:56:03.898Z,13.47
2019-02-27T05:58:33.534Z,13.07
2019-02-27T06:01:05.028Z,13.50
2019-02-27T06:03:34.143Z,13.87
2019-02-27T06:06:03.882Z,14.90
2019-02-27T06:08:36.725Z,14.83
2019-02-27T06:11:04.708Z,15.23
2019-02-27T06:13:34.290Z,15.53
2019-02-27T06:16:05.769Z,13.90
2019-02-27T06:18:34.731Z,13.17
2019-02-27T06:21:04.289Z,13.57
2019-02-27T06:23:35.323Z,16.97
2019-02-27T06:26:04.950Z,13.23
2019-02-27T06:28:35.194Z,12.80
2019-02-27T06:31:04.409Z,13.70
2019-02-27T06:33:34.241Z,13.90
2019-02-27T06:36:05.410Z,14.13
2019-02-27T06:38:35.295Z,13.77
2019-02-27T06:41:04.778Z,14.90
2019-02-27T06:43:35.101Z,13.50
2019-02-27T06:46:05.443Z,13.40
2019-02-27T06:48:34.971Z,11.90
2019-02-27T06:51:04.571Z,14.80
2019-02-27T06:53:34.010Z,15.03
2019-02-27T06:56:04.106Z,13.47
2019-02-27T06:58:33.771Z,14.67
2019-02-27T07:01:03.300Z,13.33
2019-02-27T07:03:33.017Z,14.20
2019-02-27T07:06:02.703Z,14.03
2019-02-27T07:08:31.986Z,14.37
2019-02-27T07:11:10.388Z,13.17
2019-02-27T07:13:34.900Z,12.73
2019-02-27T07:16:04.162Z,13.50
2019-02-27T07:18:36.469Z,12.43
2019-02-27T07:21:06.404Z,13.20
2019-02-27T07:23:37.186Z,13.00
2019-02-27T07:26:06.558Z,12.40
2019-02-27T07:28:37.255Z,12.13
2019-02-27T07:31:08.419Z,13.90
2019-02-27T07:33:42.429Z,12.23
2019-02-27T07:36:11.916Z,12.77
2019-02-27T07:38:41.127Z,13.80
2019-02-27T07:41:10.512Z,14.37
2019-02-27T07:43:39.685Z,14.83
2019-02-27T07:46:09.154Z,14.47
2019-02-27T07:48:38.628Z,14.47
2019-02-27T07:51:07.783Z,14.10
2019-02-27T07:53:37.263Z,13.60
2019-02-27T07:56:06.731Z,12.17
2019-02-27T07:58:36.222Z,12.10
2019-02-27T08:01:05.448Z,10.70
2019-02-27T08:03:35.222Z,11.47
2019-02-27T08:06:04.474Z,10.90
2019-02-27T08:08:33.733Z,9.20
2019-02-27T08:11:03.787Z,8.57
2019-02-27T08:13:33.771Z,9.80
2019-02-27T08:16:05.000Z,11.73
2019-02-27T08:18:37.659Z,12.07
2019-02-27T08:21:05.453Z,11.47
2019-02-27T08:23:35.021Z,11.07
2019-02-27T08:26:05.651Z,11.20
2019-02-27T08:28:35.365Z,11.20
2019-02-27T08:31:04.813Z,10.50
2019-02-27T08:33:34.323Z,11.20
2019-02-27T08:36:03.744Z,11.97
2019-02-27T08:38:33.387Z,12.77
2019-02-27T08:41:03.646Z,12.77
2019-02-27T08:43:33.958Z,11.23
2019-02-27T08:46:05.472Z,12.00
2019-02-27T08:48:34.941Z,12.20
2019-02-27T08:51:08.517Z,11.50
2019-02-27T08:53:36.508Z,11.07
2019-02-27T08:56:06.006Z,10.70
2019-02-27T08:58:35.413Z,11.30
2019-02-27T09:01:06.543Z,11.77
2019-02-27T09:03:36.348Z,11.43
2019-02-27T09:06:06.951Z,11.00
2019-02-27T09:08:36.467Z,10.50
2019-02-27T09:11:06.870Z,11.17
2019-02-27T09:13:36.549Z,10.97
2019-02-27T09:16:06.103Z,11.03
2019-02-27T09:18:37.991Z,10.10
2019-02-27T09:21:08.342Z,11.60
2019-02-27T09:23:38.699Z,12.33
2019-02-27T09:26:08.246Z,12.13
2019-02-27T09:28:37.669Z,13.13
2019-02-27T09:31:07.258Z,12.87
2019-02-27T09:33:39.046Z,11.73
2019-02-27T09:36:10.327Z,12.50
2019-02-27T09:38:39.494Z,12.37
2019-02-27T09:41:12.215Z,9.40
2019-02-27T09:43:40.119Z,9.80
2019-02-27T09:46:09.722Z,9.10
2019-02-27T09:48:41.922Z,9.50
2019-02-27T09:51:11.084Z,9.40
2019-02-27T09:53:40.550Z,9.50
2019-02-27T09:56:11.582Z,10.03
2019-02-27T09:58:45.261Z,9.13
2019-02-27T10:01:16.829Z,9.67
2019-02-27T10:03:46.462Z,9.90
2019-02-27T10:06:15.849Z,9.90
2019-02-27T10:08:45.448Z,10.17
2019-02-27T10:11:18.555Z,9.63
2019-02-27T10:13:45.688Z,9.27
2019-02-27T10:16:15.218Z,8.50
2019-02-27T10:18:44.596Z,8.07
2019-02-27T10:21:14.136Z,7.87
2019-02-27T10:23:43.619Z,7.57
2019-02-27T10:26:13.089Z,7.07
2019-02-27T10:28:43.975Z,7.80
2019-02-27T10:31:13.390Z,7.30
2019-02-27T10:33:43.536Z,7.97
2019-02-27T10:36:13.242Z,7.70
2019-02-27T10:38:42.681Z,8.57
2019-02-27T10:41:11.938Z,6.47
2019-02-27T10:43:41.267Z,6.97
2019-02-27T10:46:10.477Z,7.13
2019-02-27T10:48:39.866Z,6.73
2019-02-27T10:51:09.715Z,6.70
2019-02-27T10:53:39.756Z,6.67
2019-02-27T10:56:09.358Z,8.10
2019-02-27T10:58:38.701Z,6.97
2019-02-27T11:01:07.956Z,8.27
2019-02-27T11:03:37.300Z,7.97
2019-02-27T11:06:06.618Z,8.90
2019-02-27T11:08:35.935Z,7.20
2019-02-27T11:11:05.168Z,6.63
2019-02-27T11:13:34.582Z,5.83
2019-02-27T11:16:04.138Z,5.90
2019-02-27T11:18:35.583Z,5.57
2019-02-27T11:21:06.602Z,6.30
2019-02-27T11:23:35.883Z,5.27
2019-02-27T11:26:05.385Z,5.57
2019-02-27T11:28:34.540Z,5.57
2019-02-27T11:31:03.904Z,6.33
2019-02-27T11:33:33.669Z,6.07
2019-02-27T11:36:03.245Z,6.17
2019-02-27T11:38:33.801Z,6.10
2019-02-27T11:41:02.962Z,6.07
2019-02-27T11:43:33.840Z,6.07
2019-02-27T11:46:03.030Z,6.53
2019-02-27T11:48:32.312Z,6.70
2019-02-27T11:51:01.550Z,6.17
2019-02-27T11:53:30.810Z,7.00
2019-02-27T11:55:59.984Z,6.37
2019-02-27T11:58:29.914Z,6.20
2019-02-27T12:00:59.190Z,5.80
2019-02-27T12:03:28.428Z,5.43
2019-02-27T12:05:57.599Z,6.17
2019-02-27T12:08:26.915Z,5.17
2019-02-27T12:10:56.299Z,5.30
2019-02-27T12:13:25.488Z,5.50
2019-02-27T12:15:54.763Z,5.40
2019-02-27T12:18:23.994Z,5.10
2019-02-27T12:20:54.135Z,4.83
2019-02-27T12:23:23.443Z,3.83
2019-02-27T12:25:52.778Z,4.20
2019-02-27T12:28:22.011Z,4.83
2019-02-27T12:30:51.330Z,4.83
2019-02-27T12:33:20.903Z,3.97
2019-02-27T12:35:50.252Z,3.80
2019-02-27T12:38:19.421Z,4.20
2019-02-27T12:40:48.924Z,5.00
2019-02-27T12:43:18.531Z,4.23
2019-02-27T12:45:48.616Z,4.53
2019-02-27T12:48:17.857Z,4.60
2019-02-27T12:50:47.314Z,3.97
2019-02-27T12:53:20.701Z,3.87
2019-02-27T12:55:48.290Z,4.07
2019-02-27T12:58:18.194Z,4.20
2019-02-27T13:00:48.609Z,3.57
2019-02-27T13:03:18.210Z,3.77
2019-02-27T13:05:47.584Z,4.70
2019-02-27T13:08:18.925Z,4.30
2019-02-27T13:10:48.732Z,4.70
2019-02-27T13:13:18.344Z,4.67
2019-02-27T13:15:47.741Z,5.13
2019-02-27T13:18:17.167Z,4.60
2019-02-27T13:20:46.654Z,5.43
2019-02-27T13:23:15.852Z,5.43
2019-02-27T13:25:45.276Z,5.67
2019-02-27T13:28:17.933Z,5.13
2019-02-27T13:30:47.171Z,5.53
2019-02-27T13:33:17.032Z,5.63
2019-02-27T13:35:46.202Z,6.23
2019-02-27T13:38:18.354Z,5.43
2019-02-27T13:40:46.876Z,6.00
2019-02-27T13:43:16.320Z,6.37
2019-02-27T13:45:47.610Z,6.23
2019-02-27T13:48:18.087Z,6.37
2019-02-27T13:50:47.279Z,6.13
2019-02-27T13:53:16.492Z,6.47
2019-02-27T13:55:48.241Z,7.10
2019-02-27T13:58:17.040Z,6.07
2019-02-27T14:00:46.580Z,6.23
2019-02-27T14:03:16.451Z,6.97
2019-02-27T14:05:45.629Z,6.17
2019-02-27T14:08:24.093Z,7.77
2019-02-27T14:10:54.045Z,6.20
2019-02-27T14:13:23.604Z,6.47
2019-02-27T14:15:53.031Z,6.10
2019-02-27T14:18:22.489Z,6.80
2019-02-27T14:20:51.733Z,6.53
2019-02-27T14:23:22.363Z,8.13
2019-02-27T14:25:51.893Z,7.80
2019-02-27T14:28:21.675Z,7.07
2019-02-27T14:30:53.322Z,6.70
2019-02-27T14:33:22.806Z,7.30
2019-02-27T14:35:52.308Z,7.43
2019-02-27T14:38:22.766Z,7.20
2019-02-27T14:40:52.580Z,7.10
2019-02-27T14:43:22.048Z,7.50
2019-02-27T14:45:51.247Z,6.93
2019-02-27T14:48:21.487Z,8.20
2019-02-27T14:50:51.792Z,7.60
2019-02-27T14:53:20.995Z,7.60
2019-02-27T14:55:50.458Z,7.63
2019-02-27T14:58:24.077Z,8.53
2019-02-27T15:00:51.080Z,7.90
2019-02-27T15:03:20.543Z,9.10
2019-02-27T15:05:49.707Z,8.73
2019-02-27T15:08:19.208Z,9.20
2019-02-27T15:10:48.659Z,9.27
2019-02-27T15:13:17.813Z,8.50
2019-02-27T15:15:48.190Z,9.20
2019-02-27T15:18:17.666Z,9.37
2019-02-27T15:20:47.497Z,9.07
2019-02-27T15:23:17.042Z,9.73
2019-02-27T15:25:46.507Z,9.60
2019-02-27T15:28:15.687Z,10.47
2019-02-27T15:30:47.415Z,10.13
2019-02-27T15:33:17.069Z,11.20
2019-02-27T15:35:46.304Z,10.33
2019-02-27T15:38:15.565Z,11.23
2019-02-27T15:40:45.277Z,11.17
2019-02-27T15:43:17.359Z,11.10
2019-02-27T15:45:48.804Z,11.83
2019-02-27T15:48:21.492Z,12.40
2019-02-27T15:50:51.039Z,12.77
2019-02-27T15:53:20.520Z,11.70
2019-02-27T15:55:49.989Z,11.83
2019-02-27T15:58:19.151Z,12.93
2019-02-27T16:00:52.150Z,12.67
2019-02-27T16:03:19.809Z,14.40
2019-02-27T16:05:49.238Z,13.10
2019-02-27T16:08:20.213Z,14.00
2019-02-27T16:10:54.844Z,13.77
2019-02-27T16:13:20.645Z,12.17
2019-02-27T16:15:51.535Z,12.57
2019-02-27T16:18:20.879Z,11.47
2019-02-27T16:20:52.023Z,13.10
2019-02-27T16:23:21.228Z,12.30
2019-02-27T16:25:54.002Z,12.27
2019-02-27T16:28:22.866Z,11.17
2019-02-27T16:30:52.134Z,12.07
2019-02-27T16:33:24.050Z,11.80
2019-02-27T16:35:52.723Z,13.27
2019-02-27T16:38:21.918Z,14.73
2019-02-27T16:40:52.570Z,16.10
2019-02-27T16:43:22.499Z,16.23
2019-02-27T16:45:52.025Z,16.60
2019-02-27T16:48:21.482Z,15.37
2019-02-27T16:50:51.015Z,11.77
2019-02-27T16:53:29.190Z,12.17
2019-02-27T16:56:01.087Z,13.17
2019-02-27T16:58:32.951Z,13.10
2019-02-27T17:01:01.764Z,14.83
2019-02-27T17:03:31.394Z,16.37
2019-02-27T17:06:02.682Z,18.33
2019-02-27T17:08:35.682Z,16.63
2019-02-27T17:11:04.400Z,17.33
2019-02-27T17:13:33.759Z,16.13
2019-02-27T17:16:03.395Z,17.03
2019-02-27T17:18:33.494Z,15.20
2019-02-27T17:21:02.671Z,16.83
2019-02-27T17:23:31.977Z,16.10
2019-02-27T17:26:04.290Z,15.67
2019-02-27T17:28:32.490Z,16.27
2019-02-27T17:31:02.105Z,17.73
2019-02-27T17:33:31.646Z,16.00
2019-02-27T17:36:00.928Z,15.30
2019-02-27T17:38:30.149Z,15.33
2019-02-27T17:40:59.541Z,16.80
2019-02-27T17:43:30.683Z,15.70
2019-02-27T17:45:59.882Z,17.40
2019-02-27T17:48:29.283Z,16.13
2019-02-27T17:50:58.788Z,17.20
2019-02-27T17:53:27.996Z,16.80
2019-02-27T17:55:57.398Z,16.40
2019-02-27T17:58:31.843Z,16.10
2019-02-27T18:01:04.948Z,14.60
2019-02-27T18:03:36.646Z,15.63
2019-02-27T18:06:05.660Z,15.53
2019-02-27T18:08:36.754Z,18.00
2019-02-27T18:11:06.310Z,17.60
2019-02-27T18:13:36.321Z,15.70
2019-02-27T18:16:05.941Z,16.13
2019-02-27T18:18:35.214Z,16.40
2019-02-27T18:21:04.453Z,14.47
2019-02-27T18:23:33.936Z,17.07
2019-02-27T18:26:03.429Z,19.07
2019-02-27T18:28:33.712Z,19.60
2019-02-27T18:31:03.280Z,19.30
2019-02-27T18:33:32.675Z,18.50
2019-02-27T18:36:04.703Z,19.27
2019-02-27T18:38:34.330Z,19.63
2019-02-27T18:41:04.483Z,20.73
2019-02-27T18:43:34.030Z,19.77
2019-02-27T18:46:03.535Z,20.07
2019-02-27T18:48:33.239Z,21.47
2019-02-27T18:51:02.485Z,24.83
2019-02-27T18:53:32.470Z,24.10
2019-02-27T18:56:02.655Z,25.10
2019-02-27T18:58:32.489Z,26.87
2019-02-27T19:01:01.913Z,27.27
2019-02-27T19:03:31.403Z,26.43
2019-02-27T19:06:00.746Z,26.57
2019-02-27T19:08:29.943Z,27.47
2019-02-27T19:10:59.405Z,29.03
2019-02-27T19:13:31.787Z,28.80
2019-02-27T19:16:00.059Z,32.03
2019-02-27T19:18:35.395Z,32.27
2019-02-27T19:21:05.127Z,33.17
2019-02-27T19:23:34.717Z,32.00
2019-02-27T19:26:06.289Z,33.50
2019-02-27T19:28:35.777Z,34.37
2019-02-27T19:31:05.359Z,36.73
2019-02-27T19:33:35.801Z,39.53
2019-02-27T19:36:05.933Z,39.53
2019-02-27T19:38:35.486Z,39.93
2019-02-27T19:41:05.224Z,40.40
2019-02-27T19:43:35.602Z,41.10
2019-02-27T19:46:07.034Z,41.43
2019-02-27T19:48:35.916Z,42.20
2019-02-27T19:51:05.588Z,41.17
2019-02-27T19:53:39.406Z,39.07
2019-02-27T19:56:06.081Z,40.93
2019-02-27T19:58:35.602Z,41.33
2019-02-27T20:01:08.606Z,41.07
2019-02-27T20:03:37.691Z,43.07
2019-02-27T20:06:06.993Z,42.83
2019-02-27T20:08:36.641Z,43.87
2019-02-27T20:11:06.714Z,42.63
2019-02-27T20:13:36.438Z,42.97
2019-02-27T20:16:06.231Z,46.23
2019-02-27T20:18:35.633Z,45.03
2019-02-27T20:21:05.567Z,44.70
2019-02-27T20:23:35.290Z,46.53
2019-02-27T20:26:13.656Z,44.03
2019-02-27T20:28:35.732Z,44.50
2019-02-27T20:31:05.033Z,48.07
2019-02-27T20:33:37.289Z,49.63
2019-02-27T20:36:06.294Z,48.60
2019-02-27T20:38:36.136Z,48.80
2019-02-27T20:41:05.835Z,48.03
2019-02-27T20:43:36.449Z,50.47
2019-02-27T20:46:06.802Z,49.37
2019-02-27T20:48:39.702Z,49.63
2019-02-27T20:51:09.157Z,50.57
2019-02-27T20:53:38.620Z,49.50
2019-02-27T20:56:08.455Z,50.43
2019-02-27T20:58:37.697Z,51.27
2019-02-27T21:01:09.981Z,52.67
2019-02-27T21:03:38.229Z,55.33
2019-02-27T21:06:07.450Z,52.70
2019-02-27T21:08:36.863Z,50.23
2019-02-27T21:11:06.339Z,52.47
2019-02-27T21:13:36.664Z,48.97
2019-02-27T21:16:09.462Z,51.17
2019-02-27T21:18:37.298Z,55.27
2019-02-27T21:21:06.458Z,51.80
2019-02-27T21:23:36.428Z,54.60
2019-02-27T21:26:05.870Z,54.43
2019-02-27T21:28:35.323Z,54.57
2019-02-27T21:31:04.609Z,54.97
2019-02-27T21:33:33.930Z,55.47
2019-02-27T21:36:03.735Z,55.30
2019-02-27T21:38:33.443Z,55.47
2019-02-27T21:41:02.859Z,55.90
2019-02-27T21:43:32.787Z,53.87
2019-02-27T21:46:04.699Z,54.20
2019-02-27T21:48:34.079Z,54.10
2019-02-27T21:51:03.321Z,56.43
2019-02-27T21:53:32.600Z,56.73
2019-02-27T21:56:02.022Z,56.03
2019-02-27T21:58:32.832Z,54.30
2019-02-27T22:01:02.640Z,54.60
2019-02-27T22:03:35.141Z,56.13
2019-02-27T22:06:04.535Z,55.67
2019-02-27T22:08:36.136Z,52.57
2019-02-27T22:11:05.172Z,53.63
2019-02-27T22:13:34.694Z,55.33
2019-02-27T22:16:04.521Z,52.03
2019-02-27T22:18:33.830Z,52.40
2019-02-27T22:21:03.147Z,54.10
2019-02-27T22:23:32.708Z,55.10
2019-02-27T22:26:03.132Z,53.60
2019-02-27T22:28:33.418Z,53.23
2019-02-27T22:31:06.146Z,54.10
2019-02-27T22:33:34.095Z,51.43
2019-02-27T22:36:03.438Z,52.23
2019-02-27T22:38:34.522Z,50.03
2019-02-27T22:41:03.684Z,51.63
2019-02-27T22:43:34.950Z,51.67
2019-02-27T22:46:04.168Z,50.57
2019-02-27T22:48:33.617Z,51.13
2019-02-27T22:51:02.994Z,49.37
2019-02-27T22:53:32.542Z,52.37
2019-02-27T22:56:01.942Z,51.93
2019-02-27T22:58:31.653Z,51.83
2019-02-27T23:01:08.642Z,49.30
2019-02-27T23:03:46.988Z,49.00
2019-02-27T23:06:16.751Z,48.53
2019-02-27T23:08:46.271Z,49.03
2019-02-27T23:11:15.504Z,49.33
2019-02-27T23:13:49.030Z,50.37
2019-02-27T23:16:20.376Z,50.37
2019-02-27T23:18:49.724Z,49.90
2019-02-27T23:21:18.996Z,45.80
2019-02-27T23:23:48.270Z,48.07
2019-02-27T23:26:20.099Z,49.03
2019-02-27T23:28:48.947Z,47.83
2019-02-27T23:31:22.407Z,47.37
2019-02-27T23:33:49.513Z,45.90
2019-02-27T23:36:22.021Z,46.53
2019-02-27T23:38:50.176Z,46.13
2019-02-27T23:41:22.784Z,45.90
2019-02-27T23:43:50.851Z,47.57
2019-02-27T23:46:20.301Z,46.87
2019-02-27T23:48:49.616Z,47.40
2019-02-27T23:51:18.970Z,46.37
2019-02-27T23:53:48.816Z,47.20
2019-02-27T23:56:20.348Z,46.53
2019-02-27T23:58:50.450Z,47.43
